createdAt,value
2019-05-15T00:01:48.916Z,83.59
2019-05-15T00:04:15.400Z,83.63
2019-05-15T00:06:41.627Z,83.66
2019-05-15T00:09:08.156Z,84.05
2019-05-15T00:11:34.525Z,84.25
2019-05-15T00:14:00.768Z,84.22
2019-05-15T00:16:29.017Z,84.51
2019-05-15T00:18:55.149Z,83.72
2019-05-15T00:21:21.400Z,83.97
2019-05-15T00:23:49.546Z,84.02
2019-05-15T00:26:18.096Z,83.38
2019-05-15T00:28:43.933Z,83.27
2019-05-15T00:31:10.171Z,83.38
2019-05-15T00:33:36.405Z,84.20
2019-05-15T00:36:02.664Z,85.21
2019-05-15T00:38:28.887Z,85.06
2019-05-15T00:40:55.132Z,84.75
2019-05-15T00:43:21.366Z,84.92
2019-05-15T00:45:48.905Z,85.16
2019-05-15T00:48:15.429Z,84.29
2019-05-15T00:50:41.675Z,84.30
2019-05-15T00:53:08.710Z,84.27
2019-05-15T00:55:35.166Z,85.50
2019-05-15T00:58:01.404Z,84.29
2019-05-15T01:00:42.397Z,85.51
2019-05-15T01:03:08.987Z,85.49
2019-05-15T01:05:35.346Z,86.00
2019-05-15T01:08:01.597Z,85.75
2019-05-15T01:10:28.690Z,85.58
2019-05-15T01:12:55.059Z,85.24
2019-05-15T01:15:21.301Z,84.94
2019-05-15T01:17:49.220Z,85.20
2019-05-15T01:20:15.692Z,85.92
2019-05-15T01:22:41.932Z,86.17
2019-05-15T01:25:08.891Z,87.14
2019-05-15T01:27:35.229Z,86.62
2019-05-15T01:30:01.851Z,86.69
2019-05-15T01:32:28.515Z,85.56
2019-05-15T01:34:54.831Z,86.16
2019-05-15T01:37:21.068Z,86.43
2019-05-15T01:39:48.560Z,85.79
2019-05-15T01:42:15.014Z,85.04
2019-05-15T01:44:41.247Z,84.51
2019-05-15T01:47:08.485Z,85.91
2019-05-15T01:49:34.917Z,86.67
2019-05-15T01:52:01.143Z,86.27
2019-05-15T01:54:28.875Z,86.34
2019-05-15T01:56:55.324Z,86.24
2019-05-15T01:59:21.557Z,86.47
2019-05-15T02:01:48.493Z,85.76
2019-05-15T02:04:15.041Z,85.71
2019-05-15T02:06:41.262Z,85.62
2019-05-15T02:09:08.321Z,85.64
2019-05-15T02:11:34.839Z,86.07
2019-05-15T02:14:01.079Z,86.70
2019-05-15T02:16:28.610Z,85.89
2019-05-15T02:18:55.171Z,85.51
2019-05-15T02:21:21.394Z,85.51
2019-05-15T02:23:48.160Z,86.36
2019-05-15T02:26:14.604Z,86.03
2019-05-15T02:28:40.856Z,86.52
2019-05-15T02:31:10.343Z,86.31
2019-05-15T02:33:35.219Z,86.15
2019-05-15T02:36:01.455Z,86.13
2019-05-15T02:38:29.526Z,86.73
2019-05-15T02:40:59.031Z,86.87
2019-05-15T02:43:23.983Z,86.61
2019-05-15T02:45:51.078Z,85.89
2019-05-15T02:48:20.002Z,86.11
2019-05-15T02:50:45.717Z,87.10
2019-05-15T02:53:11.946Z,86.83
2019-05-15T02:55:40.338Z,86.87
2019-05-15T02:58:09.643Z,86.88
2019-05-15T03:00:44.175Z,86.60
2019-05-15T03:03:02.636Z,86.63
2019-05-15T03:05:29.484Z,86.89
2019-05-15T03:07:59.335Z,87.45
2019-05-15T03:10:24.165Z,87.65
2019-05-15T03:12:50.382Z,87.08
2019-05-15T03:15:19.395Z,87.28
2019-05-15T03:17:45.149Z,86.88
2019-05-15T03:20:11.689Z,87.66
2019-05-15T03:22:40.119Z,87.31
2019-05-15T03:25:10.582Z,87.10
2019-05-15T03:27:35.293Z,87.72
2019-05-15T03:30:01.981Z,87.88
2019-05-15T03:32:42.175Z,87.71
2019-05-15T03:35:03.492Z,87.04
2019-05-15T03:37:24.508Z,87.24
2019-05-15T03:39:51.668Z,86.63
2019-05-15T03:42:19.330Z,86.81
2019-05-15T03:44:45.549Z,86.63
2019-05-15T03:47:11.879Z,86.71
2019-05-15T03:49:39.732Z,86.61
2019-05-15T03:52:09.769Z,86.36
2019-05-15T03:54:34.410Z,86.46
2019-05-15T03:57:00.677Z,85.63
2019-05-15T03:59:29.446Z,84.84
2019-05-15T04:01:55.136Z,84.65
2019-05-15T04:04:21.385Z,84.10
2019-05-15T04:06:49.854Z,83.10
2019-05-15T04:09:18.734Z,81.83
2019-05-15T04:11:43.909Z,80.25
2019-05-15T04:14:10.388Z,78.56
2019-05-15T04:16:39.091Z,77.34
2019-05-15T04:19:04.944Z,75.62
2019-05-15T04:21:31.176Z,74.54
2019-05-15T04:26:28.803Z,72.55
2019-05-15T04:28:55.579Z,69.90
2019-05-15T04:31:21.820Z,70.78
2019-05-15T04:33:49.163Z,68.70
2019-05-15T04:36:18.903Z,68.78
2019-05-15T04:38:43.783Z,66.80
2019-05-15T04:41:12.034Z,66.50
2019-05-15T04:43:41.327Z,65.17
2019-05-15T04:46:09.525Z,62.90
2019-05-15T04:48:34.607Z,63.32
2019-05-15T04:51:01.222Z,61.58
2019-05-15T04:53:29.631Z,58.49
2019-05-15T04:55:55.629Z,60.25
2019-05-15T04:58:21.882Z,58.88
2019-05-15T05:00:52.369Z,57.03
2019-05-15T05:03:20.121Z,55.11
2019-05-15T05:05:49.915Z,55.68
2019-05-15T05:08:15.713Z,54.93
2019-05-15T05:10:42.153Z,54.66
2019-05-15T05:13:08.884Z,53.37
2019-05-15T05:15:44.940Z,48.13
2019-05-15T05:18:11.353Z,53.13
2019-05-15T05:20:38.231Z,51.05
2019-05-15T05:23:04.566Z,51.10
2019-05-15T05:25:30.875Z,51.42
2019-05-15T05:27:58.037Z,51.00
2019-05-15T05:30:24.476Z,49.74
2019-05-15T05:32:50.712Z,49.47
2019-05-15T05:35:18.559Z,49.15
2019-05-15T05:37:44.901Z,47.57
2019-05-15T05:40:11.462Z,46.70
2019-05-15T05:42:38.884Z,45.96
2019-05-15T05:45:09.300Z,45.14
2019-05-15T05:47:35.108Z,45.64
2019-05-15T05:50:01.356Z,44.88
2019-05-15T05:52:28.114Z,45.23
2019-05-15T05:54:54.679Z,45.00
2019-05-15T05:57:21.640Z,47.04
2019-05-15T05:59:48.980Z,45.84
2019-05-15T06:02:15.540Z,45.63
2019-05-15T06:04:41.770Z,45.97
2019-05-15T06:07:13.230Z,45.05
2019-05-15T06:09:38.056Z,46.05
2019-05-15T06:12:04.514Z,46.57
2019-05-15T06:14:30.759Z,47.34
2019-05-15T06:16:58.889Z,46.13
2019-05-15T06:19:27.646Z,45.19
2019-05-15T06:21:58.203Z,44.92
2019-05-15T06:24:23.006Z,43.26
2019-05-15T06:26:49.309Z,44.25
2019-05-15T06:29:17.758Z,43.40
2019-05-15T06:31:43.717Z,42.11
2019-05-15T06:34:09.954Z,44.01
2019-05-15T06:36:36.210Z,40.13
2019-05-15T06:39:04.606Z,41.44
2019-05-15T06:41:33.897Z,41.85
2019-05-15T06:43:59.829Z,40.56
2019-05-15T06:46:28.173Z,41.24
2019-05-15T06:48:54.290Z,41.17
2019-05-15T06:51:20.540Z,39.93
2019-05-15T06:53:48.906Z,39.93
2019-05-15T06:56:14.948Z,39.81
2019-05-15T06:58:41.215Z,42.30
2019-05-15T07:01:08.801Z,37.86
2019-05-15T07:03:35.410Z,37.86
2019-05-15T07:06:01.658Z,39.46
2019-05-15T07:08:28.831Z,39.79
2019-05-15T07:10:55.201Z,39.79
2019-05-15T07:13:22.862Z,40.20
2019-05-15T07:15:49.870Z,37.91
2019-05-15T07:18:16.277Z,37.16
2019-05-15T07:20:42.543Z,38.51
2019-05-15T07:23:09.056Z,38.22
2019-05-15T07:25:35.381Z,37.82
2019-05-15T07:28:01.613Z,35.23
2019-05-15T07:30:28.760Z,36.18
2019-05-15T07:32:55.120Z,38.78
2019-05-15T07:35:24.234Z,38.21
2019-05-15T07:37:49.530Z,36.08
2019-05-15T07:40:19.214Z,38.06
2019-05-15T07:42:44.747Z,33.39
2019-05-15T07:45:11.908Z,34.46
2019-05-15T07:47:38.854Z,35.08
2019-05-15T07:50:09.284Z,36.27
2019-05-15T07:52:39.189Z,34.93
2019-05-15T07:55:08.707Z,34.93
2019-05-15T07:57:35.074Z,35.26
2019-05-15T08:00:01.347Z,35.16
2019-05-15T08:02:28.503Z,31.89
2019-05-15T08:04:54.799Z,32.27
2019-05-15T08:07:21.097Z,34.63
2019-05-15T08:09:48.646Z,35.04
2019-05-15T08:12:15.096Z,35.82
2019-05-15T08:14:41.336Z,35.21
2019-05-15T08:17:08.661Z,34.53
2019-05-15T08:19:35.055Z,33.23
2019-05-15T08:22:01.422Z,32.16
2019-05-15T08:24:29.775Z,34.64
2019-05-15T08:26:57.985Z,35.07
2019-05-15T08:29:24.099Z,32.28
2019-05-15T08:31:50.382Z,33.07
2019-05-15T08:34:19.584Z,36.33
2019-05-15T08:36:48.275Z,35.61
2019-05-15T08:39:14.449Z,35.64
2019-05-15T08:41:40.694Z,34.03
2019-05-15T08:44:08.712Z,31.18
2019-05-15T08:46:35.122Z,33.23
2019-05-15T08:49:02.483Z,31.99
2019-05-15T08:51:28.769Z,32.31
2019-05-15T08:53:55.078Z,33.56
2019-05-15T08:56:21.448Z,36.68
2019-05-15T08:58:48.662Z,35.19
2019-05-15T09:01:15.363Z,35.44
2019-05-15T09:03:43.737Z,36.68
2019-05-15T09:06:10.014Z,36.25
2019-05-15T09:08:38.761Z,36.49
2019-05-15T09:11:04.438Z,36.67
2019-05-15T09:13:30.720Z,35.57
2019-05-15T09:15:58.923Z,33.42
2019-05-15T09:18:25.516Z,31.83
2019-05-15T09:20:51.868Z,30.24
2019-05-15T09:23:19.425Z,32.41
2019-05-15T09:25:48.938Z,32.69
2019-05-15T09:28:19.306Z,31.32
2019-05-15T09:30:48.129Z,31.87
2019-05-15T09:33:14.044Z,33.80
2019-05-15T09:35:40.302Z,36.14
2019-05-15T09:38:08.647Z,36.09
2019-05-15T09:40:45.025Z,36.62
2019-05-15T09:43:02.851Z,36.88
2019-05-15T09:45:29.084Z,36.83
2019-05-15T09:47:55.376Z,35.25
2019-05-15T09:50:21.612Z,35.71
2019-05-15T09:52:50.074Z,35.77
2019-05-15T09:55:18.212Z,36.32
2019-05-15T09:57:44.525Z,33.70
2019-05-15T10:00:11.464Z,31.44
2019-05-15T10:02:39.501Z,31.70
2019-05-15T10:05:10.952Z,31.32
2019-05-15T10:07:34.674Z,32.31
2019-05-15T10:10:01.523Z,32.86
2019-05-15T10:12:34.586Z,33.95
2019-05-15T10:14:59.048Z,32.00
2019-05-15T10:17:24.460Z,33.22
2019-05-15T10:19:50.716Z,34.36
2019-05-15T10:22:18.689Z,33.43
2019-05-15T10:24:45.122Z,34.47
2019-05-15T10:27:11.369Z,35.35
2019-05-15T10:29:38.798Z,35.00
2019-05-15T10:32:05.166Z,33.97
2019-05-15T10:34:31.428Z,33.34
2019-05-15T10:36:58.950Z,31.94
2019-05-15T10:39:25.405Z,30.16
2019-05-15T10:41:51.655Z,33.82
2019-05-15T10:44:18.287Z,34.04
2019-05-15T10:46:48.346Z,32.27
2019-05-15T10:49:14.805Z,33.89
2019-05-15T10:51:42.881Z,34.41
2019-05-15T10:54:09.113Z,34.96
2019-05-15T10:56:35.353Z,32.13
2019-05-15T10:59:01.590Z,30.20
2019-05-15T11:01:27.930Z,31.19
2019-05-15T11:03:54.164Z,30.06
2019-05-15T11:06:20.407Z,31.48
2019-05-15T11:08:51.107Z,31.75
2019-05-15T11:11:14.795Z,31.62
2019-05-15T11:13:41.086Z,31.14
2019-05-15T11:16:08.878Z,31.42
2019-05-15T11:18:35.194Z,31.68
2019-05-15T11:21:01.487Z,33.74
2019-05-15T11:23:29.310Z,32.39
2019-05-15T11:25:57.980Z,33.01
2019-05-15T11:28:23.867Z,32.92
2019-05-15T11:30:50.112Z,31.24
2019-05-15T11:33:18.863Z,30.01
2019-05-15T11:35:59.245Z,29.21
2019-05-15T11:38:12.677Z,29.82
2019-05-15T11:40:39.094Z,29.16
2019-05-15T11:43:05.360Z,31.13
2019-05-15T11:45:31.720Z,33.15
2019-05-15T11:48:00.830Z,34.45
2019-05-15T11:50:29.106Z,35.38
2019-05-15T11:52:54.280Z,36.77
2019-05-15T11:55:20.501Z,36.88
2019-05-15T11:57:51.541Z,37.39
2019-05-15T12:00:26.741Z,37.48
2019-05-15T12:02:50.487Z,37.87
2019-05-15T12:05:18.228Z,37.84
2019-05-15T12:07:47.779Z,37.60
2019-05-15T12:10:15.061Z,38.33
2019-05-15T12:12:41.342Z,38.09
2019-05-15T12:15:08.647Z,37.15
2019-05-15T12:17:35.036Z,37.16
2019-05-15T12:20:06.220Z,37.06
2019-05-15T12:22:29.754Z,37.06
2019-05-15T12:24:56.065Z,36.74
2019-05-15T12:27:22.333Z,36.56
2019-05-15T12:29:49.298Z,36.47
2019-05-15T12:32:26.456Z,36.26
2019-05-15T12:34:43.782Z,36.61
2019-05-15T12:37:10.177Z,35.91
2019-05-15T12:39:40.624Z,36.00
2019-05-15T13:01:49.777Z,35.85
2019-05-15T13:04:16.016Z,36.65
2019-05-15T13:06:49.499Z,36.92
2019-05-15T13:09:10.386Z,37.54
2019-05-15T13:11:37.790Z,38.35
2019-05-15T13:14:04.158Z,38.89
2019-05-15T13:16:30.398Z,38.19
2019-05-15T13:18:58.649Z,37.15
2019-05-15T13:21:24.759Z,37.57
2019-05-15T13:23:50.983Z,38.44
2019-05-15T13:26:23.693Z,37.80
2019-05-15T13:28:45.378Z,37.91
2019-05-15T13:31:11.627Z,37.95
2019-05-15T13:33:38.636Z,36.93
2019-05-15T13:36:05.099Z,37.68
2019-05-15T13:38:31.319Z,36.43
2019-05-15T13:40:58.959Z,36.23
2019-05-15T13:43:25.488Z,35.95
2019-05-15T13:45:51.707Z,36.88
2019-05-15T13:48:19.998Z,36.80
2019-05-15T13:50:48.155Z,37.07
2019-05-15T13:53:14.243Z,36.73
2019-05-15T13:55:42.824Z,37.63
2019-05-15T13:58:09.009Z,34.90
2019-05-15T14:00:35.370Z,35.63
2019-05-15T14:03:01.597Z,35.55
2019-05-15T14:05:29.635Z,35.65
2019-05-15T14:07:58.162Z,35.38
2019-05-15T14:10:24.096Z,35.75
2019-05-15T14:12:50.334Z,36.63
2019-05-15T14:15:16.678Z,36.45
2019-05-15T14:17:42.920Z,37.02
2019-05-15T14:20:09.433Z,37.40
2019-05-15T14:22:35.789Z,37.55
2019-05-15T14:25:02.746Z,37.73
2019-05-15T14:27:29.131Z,38.33
2019-05-15T14:29:58.161Z,38.36
2019-05-15T14:32:35.515Z,38.79
2019-05-15T14:34:52.931Z,39.10
2019-05-15T14:37:19.168Z,39.28
2019-05-15T14:39:45.448Z,39.64
2019-05-15T14:42:11.684Z,39.80
2019-05-15T14:44:38.729Z,40.37
2019-05-15T14:47:05.356Z,40.43
2019-05-15T14:49:34.748Z,40.52
2019-05-15T14:52:08.450Z,41.33
2019-05-15T14:54:28.961Z,41.73
2019-05-15T14:56:55.334Z,41.83
2019-05-15T14:59:21.587Z,41.53
2019-05-15T15:01:48.740Z,42.50
2019-05-15T15:04:15.382Z,42.40
2019-05-15T15:06:41.610Z,43.13
2019-05-15T15:09:08.387Z,42.93
2019-05-15T15:11:34.782Z,43.59
2019-05-15T15:14:01.035Z,43.20
2019-05-15T15:16:29.145Z,44.34
2019-05-15T15:18:55.402Z,44.34
2019-05-15T15:21:22.648Z,44.46
2019-05-15T15:23:49.184Z,44.42
2019-05-15T15:26:15.448Z,44.84
2019-05-15T15:28:41.683Z,44.98
2019-05-15T15:31:07.931Z,45.24
2019-05-15T15:33:34.167Z,45.18
2019-05-15T15:36:00.408Z,45.44
2019-05-15T15:38:38.081Z,46.08
2019-05-15T15:40:54.783Z,45.75
2019-05-15T15:43:21.211Z,45.72
2019-05-15T15:45:48.382Z,46.40
2019-05-15T15:48:14.702Z,46.15
2019-05-15T15:50:40.943Z,46.20
2019-05-15T15:53:08.986Z,46.97
2019-05-15T15:55:38.251Z,46.55
2019-05-15T15:58:03.598Z,46.64
2019-05-15T16:00:29.850Z,46.77
2019-05-15T16:02:56.280Z,46.98
2019-05-15T16:05:22.518Z,47.64
2019-05-15T16:07:48.771Z,47.77
2019-05-15T16:10:15.197Z,47.76
2019-05-15T16:12:41.444Z,48.36
2019-05-15T16:15:08.947Z,48.31
2019-05-15T16:17:38.099Z,48.33
2019-05-15T16:20:04.753Z,48.38
2019-05-15T16:22:31.199Z,48.64
2019-05-15T16:24:58.759Z,48.72
2019-05-15T16:27:25.588Z,48.75
2019-05-15T16:29:51.825Z,49.20
2019-05-15T16:32:21.537Z,49.42
2019-05-15T16:34:47.922Z,48.84
2019-05-15T16:37:14.266Z,49.04
2019-05-15T16:39:40.907Z,49.25
2019-05-15T16:42:07.178Z,49.17
2019-05-15T16:44:33.421Z,49.54
2019-05-15T16:46:59.674Z,49.88
2019-05-15T16:49:28.294Z,49.83
2019-05-15T16:51:54.052Z,50.89
2019-05-15T16:54:20.809Z,50.67
2019-05-15T16:56:48.800Z,50.95
2019-05-15T16:59:15.222Z,51.02
2019-05-15T17:01:41.574Z,51.37
2019-05-15T17:04:08.415Z,51.49
2019-05-15T17:06:34.857Z,52.11
2019-05-15T17:09:01.109Z,52.68
2019-05-15T17:11:28.879Z,52.64
2019-05-15T17:13:55.395Z,53.21
2019-05-15T17:16:21.622Z,52.89
2019-05-15T17:18:48.644Z,52.75
2019-05-15T17:21:15.303Z,53.09
2019-05-15T17:23:41.558Z,53.69
2019-05-15T17:26:08.797Z,53.48
2019-05-15T17:28:35.385Z,53.76
2019-05-15T17:31:01.613Z,55.00
2019-05-15T17:33:28.955Z,54.05
2019-05-15T17:35:55.349Z,54.27
2019-05-15T17:38:21.597Z,54.66
2019-05-15T17:40:48.468Z,54.57
2019-05-15T17:43:14.917Z,54.80
2019-05-15T17:45:41.173Z,54.87
2019-05-15T17:48:08.897Z,55.05
2019-05-15T17:50:48.253Z,55.10
2019-05-15T17:53:03.713Z,55.07
2019-05-15T17:55:29.952Z,55.16
2019-05-15T17:57:58.336Z,55.68
2019-05-15T18:00:24.331Z,55.60
2019-05-15T18:02:50.826Z,55.73
2019-05-15T18:05:18.813Z,55.57
2019-05-15T18:07:45.278Z,55.49
2019-05-15T18:10:12.238Z,55.76
2019-05-15T18:12:39.015Z,55.69
2019-05-15T18:15:05.813Z,56.33
2019-05-15T18:17:32.044Z,56.00
2019-05-15T18:19:58.300Z,55.92
2019-05-15T18:22:24.829Z,55.97
2019-05-15T18:24:51.205Z,56.69
2019-05-15T18:27:18.564Z,56.07
2019-05-15T18:29:45.274Z,56.36
2019-05-15T18:32:12.291Z,55.90
2019-05-15T18:34:39.615Z,56.19
2019-05-15T18:37:08.411Z,56.24
2019-05-15T18:39:34.211Z,56.69
2019-05-15T18:42:00.463Z,56.99
2019-05-15T18:44:28.332Z,56.84
2019-05-15T18:46:54.750Z,56.95
2019-05-15T18:49:20.983Z,56.94
2019-05-15T18:51:47.915Z,57.08
2019-05-15T18:54:14.394Z,57.49
2019-05-15T18:56:40.625Z,57.07
2019-05-15T18:59:08.450Z,57.88
2019-05-15T19:01:34.903Z,57.15
2019-05-15T19:04:01.458Z,57.37
2019-05-15T19:06:29.255Z,57.47
2019-05-15T19:08:55.684Z,57.87
2019-05-15T19:11:21.949Z,58.34
2019-05-15T19:13:48.267Z,58.71
2019-05-15T19:16:14.508Z,59.11
2019-05-15T19:18:40.751Z,59.15
2019-05-15T19:21:07.950Z,60.19
2019-05-15T19:23:34.532Z,59.49
2019-05-15T19:26:01.165Z,59.33
2019-05-15T19:28:28.658Z,59.71
2019-05-15T19:30:55.161Z,59.82
2019-05-15T19:33:33.406Z,60.37
2019-05-15T19:35:49.543Z,60.17
2019-05-15T19:38:15.828Z,60.37
2019-05-15T19:40:43.976Z,60.86
2019-05-15T19:43:10.221Z,60.69
2019-05-15T19:45:38.332Z,61.09
2019-05-15T19:48:04.606Z,60.96
2019-05-15T19:50:30.859Z,61.05
2019-05-15T19:52:59.105Z,61.10
2019-05-15T19:55:25.244Z,61.26
2019-05-15T19:57:52.704Z,61.82
2019-05-15T20:00:19.062Z,61.94
2019-05-15T20:02:45.411Z,61.99
2019-05-15T20:05:11.648Z,62.18
2019-05-15T20:07:39.087Z,62.54
2019-05-15T20:10:07.328Z,62.85
2019-05-15T20:12:33.567Z,62.82
2019-05-15T20:14:59.818Z,63.00
2019-05-15T20:17:27.736Z,63.28
2019-05-15T20:19:54.108Z,63.50
2019-05-15T20:22:20.339Z,63.93
2019-05-15T20:24:46.579Z,64.56
2019-05-15T20:27:12.829Z,64.62
2019-05-15T20:29:39.074Z,64.87
2019-05-15T20:32:05.665Z,65.11
2019-05-15T20:34:31.924Z,65.25
2019-05-15T20:36:58.713Z,65.34
2019-05-15T20:39:25.299Z,66.01
2019-05-15T20:41:51.533Z,66.06
2019-05-15T20:44:18.247Z,66.24
2019-05-15T20:46:44.709Z,66.60
2019-05-15T20:49:10.936Z,66.62
2019-05-15T20:51:38.943Z,66.69
2019-05-15T20:54:05.334Z,66.95
2019-05-15T20:56:31.614Z,67.11
2019-05-15T20:59:00.019Z,67.50
2019-05-15T21:01:28.579Z,67.69
2019-05-15T21:03:54.380Z,67.55
2019-05-15T21:06:20.618Z,67.74
2019-05-15T21:08:48.803Z,67.89
2019-05-15T21:11:15.021Z,68.12
2019-05-15T21:13:41.288Z,69.29
2019-05-15T21:16:08.284Z,68.45
2019-05-15T21:18:34.681Z,69.15
2019-05-15T21:21:00.960Z,69.06
2019-05-15T21:23:28.524Z,69.21
2019-05-15T21:25:54.941Z,69.63
2019-05-15T21:28:21.168Z,70.11
2019-05-15T21:30:49.215Z,70.45
2019-05-15T21:33:17.647Z,70.71
2019-05-15T21:35:43.744Z,70.61
2019-05-15T21:38:10.081Z,70.77
2019-05-15T21:40:38.459Z,70.66
2019-05-15T21:43:04.475Z,71.40
2019-05-15T21:45:30.701Z,71.51
2019-05-15T21:48:00.441Z,71.82
2019-05-15T21:50:25.105Z,73.22
2019-05-15T21:52:51.355Z,72.62
2019-05-15T21:55:18.478Z,73.10
2019-05-15T21:57:45.229Z,73.42
2019-05-15T22:00:34.640Z,73.31
2019-05-15T22:03:01.093Z,74.28
2019-05-15T22:05:27.821Z,74.11
2019-05-15T22:07:54.060Z,73.67
2019-05-15T22:10:20.185Z,73.54
2019-05-15T22:12:48.322Z,73.63
2019-05-15T22:15:18.972Z,73.95
2019-05-15T22:17:49.017Z,74.64
2019-05-15T22:20:14.463Z,75.51
2019-05-15T22:22:40.710Z,75.59
2019-05-15T22:25:10.884Z,75.78
2019-05-15T22:27:35.488Z,76.08
2019-05-15T22:30:01.743Z,76.51
2019-05-15T22:32:29.187Z,76.45
2019-05-15T22:35:07.071Z,76.76
2019-05-15T22:37:23.846Z,76.20
2019-05-15T22:39:50.101Z,75.92
2019-05-15T22:42:18.282Z,76.50
2019-05-15T22:44:44.474Z,76.53
2019-05-15T22:47:10.705Z,77.81
2019-05-15T22:49:38.038Z,78.02
2019-05-15T22:52:04.496Z,77.96
2019-05-15T22:54:30.738Z,78.10
2019-05-15T22:56:57.690Z,78.04
2019-05-15T22:59:24.129Z,78.09
2019-05-15T23:01:50.358Z,76.72
2019-05-15T23:04:18.117Z,76.87
2019-05-15T23:06:44.452Z,78.77
2019-05-15T23:09:10.703Z,78.21
2019-05-15T23:11:39.293Z,79.98
2019-05-15T23:14:05.085Z,81.12
2019-05-15T23:16:31.313Z,81.20
2019-05-15T23:18:58.803Z,80.82
2019-05-15T23:21:25.287Z,79.35
2019-05-15T23:23:51.518Z,80.41
2019-05-15T23:26:17.769Z,81.61
2019-05-15T23:28:44.013Z,81.58
2019-05-15T23:31:10.268Z,82.64
2019-05-15T23:33:38.583Z,81.70
2019-05-15T23:36:04.649Z,81.49
2019-05-15T23:38:30.881Z,81.47
2019-05-15T23:40:58.953Z,82.13
2019-05-15T23:43:25.257Z,82.69
2019-05-15T23:45:51.526Z,81.76
2019-05-15T23:48:17.743Z,82.27
2019-05-15T23:50:43.987Z,82.97
2019-05-15T23:53:10.229Z,82.48
2019-05-15T23:55:36.469Z,82.87
2019-05-15T23:58:02.689Z,82.61
